createdAt,value
2018-12-31T00:02:18.267Z,4.00
2018-12-31T00:04:50.584Z,3.27
2018-12-31T00:07:22.055Z,4.57
2018-12-31T00:09:53.499Z,5.50
2018-12-31T00:12:25.694Z,4.60
2018-12-31T00:14:56.965Z,4.57
2018-12-31T00:17:28.413Z,7.77
2018-12-31T00:19:59.754Z,6.57
2018-12-31T00:22:34.892Z,7.30
2018-12-31T00:25:06.156Z,5.10
2018-12-31T00:27:38.197Z,7.43
2018-12-31T00:36:18.475Z,7.97
2018-12-31T00:38:53.462Z,7.73
2018-12-31T00:41:28.097Z,13.10
2018-12-31T00:44:05.648Z,6.93
2018-12-31T00:46:37.304Z,6.13
2018-12-31T00:49:08.466Z,7.60
2018-12-31T00:51:40.158Z,9.23
2018-12-31T00:54:11.933Z,9.37
2018-12-31T00:56:44.776Z,6.50
2018-12-31T00:59:16.101Z,6.57
2018-12-31T01:01:47.573Z,5.77
2018-12-31T01:04:18.825Z,4.63
2018-12-31T01:06:50.189Z,7.93
2018-12-31T01:09:21.486Z,7.93
2018-12-31T01:11:52.757Z,6.30
2018-12-31T01:14:24.028Z,9.07
2018-12-31T01:16:55.328Z,4.43
2018-12-31T01:19:26.494Z,7.27
2018-12-31T01:21:57.788Z,10.27
2018-12-31T01:24:30.387Z,6.23
2018-12-31T01:27:01.655Z,9.03
2018-12-31T01:29:33.094Z,4.30
2018-12-31T01:32:04.982Z,6.07
2018-12-31T01:34:36.324Z,8.87
2018-12-31T01:37:07.495Z,4.13
2018-12-31T01:39:38.791Z,7.57
2018-12-31T01:42:10.081Z,5.90
2018-12-31T01:44:41.342Z,7.70
2018-12-31T01:47:13.234Z,6.60
2018-12-31T01:55:57.975Z,9.37
2018-12-31T01:58:29.995Z,10.30
2018-12-31T02:01:01.370Z,3.77
2018-12-31T02:03:32.772Z,7.27
2018-12-31T02:06:04.102Z,6.47
2018-12-31T02:08:35.832Z,7.60
2018-12-31T02:11:07.016Z,9.50
2018-12-31T02:13:38.265Z,8.37
2018-12-31T02:16:09.614Z,6.67
2018-12-31T02:18:40.903Z,7.03
2018-12-31T02:21:12.359Z,7.53
2018-12-31T02:23:43.845Z,6.80
2018-12-31T02:26:15.098Z,7.90
2018-12-31T02:28:46.382Z,5.87
2018-12-31T02:31:19.289Z,4.63
2018-12-31T02:33:50.569Z,5.67
2018-12-31T02:36:21.888Z,7.07
2018-12-31T02:38:53.208Z,6.97
2018-12-31T02:41:24.415Z,9.00
2018-12-31T02:43:55.798Z,7.33
2018-12-31T03:05:43.050Z,7.53
2018-12-31T03:08:14.334Z,6.03
2018-12-31T03:10:45.755Z,8.40
2018-12-31T03:13:17.044Z,7.87
2018-12-31T03:15:48.316Z,6.53
2018-12-31T03:18:19.671Z,9.17
2018-12-31T03:20:51.100Z,10.07
2018-12-31T03:23:22.277Z,7.13
2018-12-31T03:25:53.523Z,10.07
2018-12-31T03:28:24.747Z,10.20
2018-12-31T03:30:56.158Z,10.07
2018-12-31T03:33:27.482Z,13.93
2018-12-31T03:35:58.778Z,9.40
2018-12-31T03:38:30.147Z,10.13
2018-12-31T03:41:01.671Z,11.03
2018-12-31T03:43:32.918Z,13.03
2018-12-31T03:46:04.192Z,9.80
2018-12-31T03:48:35.487Z,15.37
2018-12-31T03:51:06.860Z,12.97
2018-12-31T03:53:38.117Z,17.37
2018-12-31T03:56:09.586Z,14.47
2018-12-31T03:58:40.919Z,14.93
2018-12-31T04:01:12.202Z,17.03
2018-12-31T04:03:43.470Z,13.00
2018-12-31T04:06:14.837Z,15.00
2018-12-31T04:08:46.242Z,13.23
2018-12-31T04:11:17.546Z,18.47
2018-12-31T04:13:48.707Z,12.23
2018-12-31T04:16:20.115Z,10.90
2018-12-31T04:18:51.974Z,10.30
2018-12-31T04:42:09.988Z,12.50
2018-12-31T04:44:42.163Z,8.33
2018-12-31T04:47:13.555Z,5.87
2018-12-31T04:49:44.798Z,5.77
2018-12-31T04:52:16.036Z,8.27
2018-12-31T04:54:47.221Z,7.23
2018-12-31T04:57:18.457Z,5.00
2018-12-31T04:59:49.626Z,10.07
2018-12-31T05:02:20.912Z,6.60
2018-12-31T05:04:52.154Z,9.13
2018-12-31T05:16:34.489Z,8.63
2018-12-31T05:19:05.988Z,5.67
2018-12-31T05:21:37.459Z,8.53
2018-12-31T05:24:08.739Z,5.20
2018-12-31T05:26:40.177Z,7.33
2018-12-31T05:29:11.594Z,7.97
2018-12-31T05:31:42.945Z,5.20
2018-12-31T05:34:15.027Z,7.73
2018-12-31T05:36:46.567Z,6.97
2018-12-31T05:39:17.802Z,4.87
2018-12-31T05:41:49.092Z,4.93
2018-12-31T05:44:20.413Z,9.00
2018-12-31T05:46:51.683Z,7.10
2018-12-31T05:49:25.017Z,11.70
2018-12-31T05:51:56.252Z,8.67
2018-12-31T05:54:27.491Z,7.47
2018-12-31T05:56:58.751Z,5.60
2018-12-31T05:59:30.076Z,8.20
2018-12-31T06:02:01.458Z,4.97
2018-12-31T06:04:32.692Z,7.23
2018-12-31T06:07:04.200Z,6.07
2018-12-31T06:09:35.470Z,9.37
2018-12-31T06:12:06.765Z,6.13
2018-12-31T06:14:37.994Z,4.13
2018-12-31T06:17:09.296Z,7.87
2018-12-31T06:19:40.749Z,5.73
2018-12-31T06:22:12.070Z,6.90
2018-12-31T06:24:43.312Z,8.73
2018-12-31T06:27:14.614Z,10.10
2018-12-31T06:29:45.880Z,4.27
2018-12-31T06:32:17.287Z,5.93
2018-12-31T06:34:48.652Z,7.87
2018-12-31T06:37:20.036Z,5.93
2018-12-31T06:39:51.385Z,4.80
2018-12-31T06:42:22.656Z,6.27
2018-12-31T06:44:53.821Z,5.93
2018-12-31T06:47:25.077Z,4.77
2018-12-31T06:49:56.425Z,3.97
2018-12-31T06:52:27.662Z,4.83
2018-12-31T06:54:59.020Z,4.40
2018-12-31T06:57:30.288Z,5.47
2018-12-31T07:00:01.457Z,3.43
2018-12-31T07:02:32.728Z,4.03
2018-12-31T07:05:03.981Z,5.03
2018-12-31T07:07:35.737Z,8.07
2018-12-31T07:10:07.474Z,6.77
2018-12-31T07:12:39.562Z,6.07
2018-12-31T07:15:11.013Z,6.27
2018-12-31T07:17:42.753Z,3.93
2018-12-31T07:20:14.007Z,6.17
2018-12-31T07:22:45.498Z,5.50
2018-12-31T07:25:16.753Z,4.50
2018-12-31T07:27:48.036Z,6.93
2018-12-31T07:42:36.038Z,7.47
2018-12-31T07:45:07.540Z,6.97
2018-12-31T07:47:39.236Z,9.83
2018-12-31T07:50:10.490Z,3.97
2018-12-31T07:52:41.729Z,4.07
2018-12-31T07:55:12.987Z,5.30
2018-12-31T07:57:46.106Z,4.97
2018-12-31T08:00:17.556Z,5.90
2018-12-31T08:02:48.839Z,7.77
2018-12-31T08:05:20.359Z,7.13
2018-12-31T08:07:51.629Z,7.20
2018-12-31T08:10:22.853Z,6.20
2018-12-31T08:12:54.216Z,7.40
2018-12-31T08:15:25.623Z,7.20
2018-12-31T08:17:57.378Z,8.47
2018-12-31T08:20:28.724Z,7.43
2018-12-31T08:23:00.008Z,9.17
2018-12-31T08:25:31.352Z,6.10
2018-12-31T08:28:02.687Z,6.97
2018-12-31T08:30:34.863Z,9.50
2018-12-31T08:33:06.472Z,7.67
2018-12-31T08:35:37.666Z,9.17
2018-12-31T08:38:08.947Z,6.73
2018-12-31T08:40:41.276Z,5.70
2018-12-31T08:43:12.549Z,8.00
2018-12-31T08:45:44.190Z,12.13
2018-12-31T08:48:15.509Z,11.67
2018-12-31T08:50:46.812Z,11.13
2018-12-31T08:53:18.282Z,8.83
2018-12-31T08:55:49.616Z,11.37
2018-12-31T08:58:20.945Z,10.13
2018-12-31T09:00:52.498Z,6.80
2018-12-31T09:03:24.775Z,7.00
2018-12-31T09:05:56.051Z,9.90
2018-12-31T09:08:27.473Z,6.23
2018-12-31T09:10:58.777Z,7.60
2018-12-31T09:13:31.409Z,10.23
2018-12-31T09:16:04.571Z,11.93
2018-12-31T09:18:41.768Z,8.03
2018-12-31T09:21:18.730Z,10.07
2018-12-31T09:23:51.802Z,12.83
2018-12-31T09:26:24.287Z,7.73
2018-12-31T09:29:02.178Z,14.03
2018-12-31T09:32:05.452Z,10.20
2018-12-31T09:34:37.642Z,7.87
2018-12-31T09:37:13.748Z,8.63
2018-12-31T09:39:45.181Z,7.67
2018-12-31T09:42:23.394Z,6.83
2018-12-31T09:44:57.126Z,10.03
2018-12-31T09:47:29.724Z,7.93
2018-12-31T09:50:05.540Z,8.80
2018-12-31T09:52:37.854Z,13.87
2018-12-31T09:55:10.820Z,10.17
2018-12-31T09:57:48.178Z,9.70
2018-12-31T10:00:19.542Z,5.03
2018-12-31T10:02:53.929Z,6.80
2018-12-31T10:05:25.784Z,5.67
2018-12-31T10:07:57.192Z,7.00
2018-12-31T10:10:28.503Z,3.40
2018-12-31T10:13:01.662Z,6.13
2018-12-31T10:15:35.369Z,4.13
2018-12-31T10:18:07.402Z,6.57
2018-12-31T10:20:42.248Z,4.43
2018-12-31T10:23:13.899Z,5.17
2018-12-31T10:25:47.222Z,5.63
2018-12-31T10:28:19.797Z,5.10
2018-12-31T10:30:51.289Z,9.60
2018-12-31T10:33:22.457Z,7.20
2018-12-31T10:35:53.847Z,6.20
2018-12-31T10:38:25.090Z,6.10
2018-12-31T10:40:56.398Z,10.47
2018-12-31T10:43:27.902Z,5.33
2018-12-31T10:45:59.453Z,8.10
2018-12-31T10:48:30.998Z,6.40
2018-12-31T10:51:03.310Z,4.73
2018-12-31T10:53:35.181Z,5.47
2018-12-31T10:56:06.416Z,7.73
2018-12-31T10:58:37.681Z,7.23
2018-12-31T11:01:09.138Z,4.40
2018-12-31T11:03:42.034Z,4.97
2018-12-31T11:15:07.737Z,7.30
2018-12-31T11:17:39.683Z,5.47
2018-12-31T11:20:11.044Z,6.90
2018-12-31T11:22:42.434Z,7.97
2018-12-31T11:25:13.756Z,5.27
2018-12-31T11:27:51.420Z,5.37
2018-12-31T11:30:23.639Z,4.07
2018-12-31T11:33:00.378Z,4.27
2018-12-31T11:35:32.038Z,3.93
2018-12-31T11:38:05.651Z,2.90
2018-12-31T11:40:39.355Z,5.60
2018-12-31T11:43:10.962Z,3.97
2018-12-31T11:45:42.617Z,6.87
2018-12-31T11:48:14.008Z,4.57
2018-12-31T11:50:45.546Z,7.37
2018-12-31T11:53:16.952Z,7.70
2018-12-31T11:55:48.433Z,7.83
2018-12-31T11:58:19.884Z,5.53
2018-12-31T12:00:51.321Z,4.77
2018-12-31T12:03:22.600Z,4.90
2018-12-31T12:05:55.102Z,5.03
2018-12-31T12:08:30.883Z,6.30
2018-12-31T12:11:02.193Z,8.07
2018-12-31T12:13:33.849Z,6.33
2018-12-31T12:16:05.495Z,6.83
2018-12-31T12:18:40.069Z,8.50
2018-12-31T12:21:11.353Z,10.73
2018-12-31T12:23:45.649Z,9.47
2018-12-31T12:26:16.981Z,7.80
2018-12-31T12:28:48.477Z,8.27
2018-12-31T12:31:20.906Z,5.23
2018-12-31T12:33:59.395Z,6.10
2018-12-31T12:36:31.563Z,7.57
2018-12-31T12:39:04.421Z,9.93
2018-12-31T12:41:35.691Z,6.47
2018-12-31T12:44:07.051Z,8.13
2018-12-31T12:46:38.418Z,7.90
2018-12-31T12:49:09.961Z,6.27
2018-12-31T12:51:41.442Z,8.60
2018-12-31T12:54:14.649Z,7.63
2018-12-31T12:56:46.005Z,11.37
2018-12-31T12:59:17.399Z,12.20
2018-12-31T13:01:48.803Z,10.43
2018-12-31T13:04:20.324Z,8.63
2018-12-31T13:06:51.599Z,15.83
2018-12-31T13:09:23.054Z,11.77
2018-12-31T13:11:54.298Z,14.10
2018-12-31T13:14:26.472Z,12.07
2018-12-31T13:16:58.152Z,11.97
2018-12-31T13:19:29.548Z,12.20
2018-12-31T13:22:00.821Z,10.87
2018-12-31T13:24:32.213Z,9.50
2018-12-31T13:27:06.717Z,12.27
2018-12-31T13:29:38.238Z,9.93
2018-12-31T13:32:09.545Z,9.77
2018-12-31T13:34:40.883Z,8.23
2018-12-31T13:37:12.165Z,10.27
2018-12-31T13:39:43.752Z,8.07
2018-12-31T13:42:15.034Z,7.27
2018-12-31T13:44:46.327Z,5.93
2018-12-31T13:47:17.700Z,6.57
2018-12-31T13:49:49.847Z,10.50
2018-12-31T13:52:21.097Z,9.40
2018-12-31T13:54:52.466Z,7.67
2018-12-31T13:57:23.892Z,8.80
2018-12-31T13:59:55.342Z,9.57
2018-12-31T14:02:26.639Z,7.90
2018-12-31T14:04:58.243Z,6.20
2018-12-31T14:07:29.801Z,9.33
2018-12-31T14:10:14.622Z,8.83
2018-12-31T14:12:52.567Z,9.33
2018-12-31T14:15:39.249Z,11.77
2018-12-31T14:18:14.043Z,7.93
2018-12-31T14:21:03.459Z,8.80
2018-12-31T14:23:51.275Z,10.47
2018-12-31T14:26:40.802Z,8.50
2018-12-31T14:29:12.325Z,10.47
2018-12-31T14:32:06.717Z,10.33
2018-12-31T14:34:48.968Z,11.13
2018-12-31T14:37:25.357Z,12.23
2018-12-31T14:39:56.787Z,14.17
2018-12-31T14:42:28.177Z,17.10
2018-12-31T14:45:09.955Z,16.90
2018-12-31T14:47:41.397Z,16.03
2018-12-31T14:50:12.659Z,17.40
2018-12-31T14:52:44.031Z,18.40
2018-12-31T14:55:26.209Z,16.50
2018-12-31T14:58:01.153Z,19.77
2018-12-31T15:00:51.635Z,18.20
2018-12-31T15:03:22.870Z,22.37
2018-12-31T15:06:06.185Z,20.40
2018-12-31T15:08:52.962Z,23.13
2018-12-31T15:11:25.637Z,23.77
2018-12-31T15:14:08.783Z,26.47
2018-12-31T15:16:50.930Z,25.13
2018-12-31T15:19:28.906Z,24.00
2018-12-31T15:22:03.615Z,22.00
2018-12-31T15:24:35.049Z,22.27
2018-12-31T15:27:23.267Z,23.57
2018-12-31T15:29:52.204Z,20.40
2018-12-31T15:32:23.577Z,23.73
2018-12-31T15:34:55.926Z,20.03
2018-12-31T15:37:27.292Z,20.67
2018-12-31T15:39:58.987Z,23.50
2018-12-31T15:42:30.526Z,26.23
2018-12-31T15:45:01.973Z,46.60
2018-12-31T15:47:33.494Z,55.33
2018-12-31T15:50:04.881Z,50.63
2018-12-31T15:52:39.101Z,49.60
2018-12-31T15:55:11.130Z,57.70
2018-12-31T15:57:42.511Z,51.23
2018-12-31T16:00:13.956Z,50.87
2018-12-31T16:02:46.260Z,62.37
2018-12-31T16:05:17.584Z,68.13
2018-12-31T16:07:49.013Z,68.87
2018-12-31T16:10:23.691Z,72.47
2018-12-31T16:12:54.944Z,63.17
2018-12-31T16:15:26.455Z,64.67
2018-12-31T16:17:57.745Z,65.03
2018-12-31T16:20:29.126Z,67.67
2018-12-31T16:23:00.437Z,73.20
2018-12-31T16:25:31.748Z,68.00
2018-12-31T16:28:04.834Z,72.93
2018-12-31T16:30:36.345Z,63.77
2018-12-31T16:33:09.233Z,65.87
2018-12-31T16:35:40.770Z,60.70
2018-12-31T16:38:12.167Z,52.13
2018-12-31T16:40:43.463Z,57.00
2018-12-31T16:43:15.042Z,58.70
2018-12-31T16:45:46.283Z,52.00
2018-12-31T16:48:17.626Z,51.83
2018-12-31T16:50:48.896Z,53.80
2018-12-31T16:53:21.165Z,57.73
2018-12-31T16:55:52.455Z,49.87
2018-12-31T16:58:23.722Z,54.90
2018-12-31T17:00:54.994Z,49.90
2018-12-31T17:03:26.584Z,48.33
2018-12-31T17:05:58.100Z,47.63
2018-12-31T17:08:29.349Z,44.73
2018-12-31T17:11:00.762Z,51.17
2018-12-31T17:13:32.171Z,49.30
2018-12-31T17:16:04.976Z,56.07
2018-12-31T17:18:36.659Z,57.93
2018-12-31T17:21:08.008Z,54.93
2018-12-31T17:23:39.473Z,55.50
2018-12-31T17:26:10.783Z,48.83
2018-12-31T17:28:42.580Z,58.90
2018-12-31T17:31:13.926Z,52.70
2018-12-31T17:33:45.319Z,59.53
2018-12-31T17:36:16.690Z,51.90
2018-12-31T17:38:49.032Z,54.53
2018-12-31T17:41:21.320Z,53.73
2018-12-31T17:43:52.637Z,50.87
2018-12-31T17:46:23.998Z,53.50
2018-12-31T17:48:55.579Z,56.87
2018-12-31T17:51:27.035Z,46.07
2018-12-31T17:53:58.342Z,56.37
2018-12-31T17:56:29.918Z,50.90
2018-12-31T17:59:10.769Z,51.03
2018-12-31T18:01:43.817Z,49.87
2018-12-31T18:04:15.206Z,47.23
2018-12-31T18:06:53.476Z,42.07
2018-12-31T18:09:24.748Z,50.00
2018-12-31T18:11:56.055Z,44.97
2018-12-31T18:14:27.502Z,45.43
2018-12-31T18:16:58.758Z,42.17
2018-12-31T18:19:30.589Z,44.03
2018-12-31T18:22:01.893Z,45.17
2018-12-31T18:24:33.262Z,52.67
2018-12-31T18:27:11.857Z,45.60
2018-12-31T18:29:43.173Z,51.30
2018-12-31T18:32:14.507Z,49.73
2018-12-31T18:34:52.943Z,55.40
2018-12-31T18:37:24.220Z,54.47
2018-12-31T18:39:58.016Z,59.20
2018-12-31T18:42:28.681Z,57.37
2018-12-31T18:45:00.205Z,66.93
2018-12-31T18:47:31.579Z,64.67
2018-12-31T18:50:05.913Z,54.47
2018-12-31T18:52:45.517Z,63.57
2018-12-31T18:55:24.366Z,63.23
2018-12-31T18:58:04.796Z,57.20
2018-12-31T19:00:37.753Z,57.20
2018-12-31T19:03:09.218Z,58.27
2018-12-31T19:05:43.648Z,42.97
2018-12-31T19:08:19.957Z,44.83
2018-12-31T19:10:51.601Z,39.80
2018-12-31T19:13:22.878Z,38.37
2018-12-31T19:15:54.399Z,33.43
2018-12-31T19:18:25.792Z,31.40
2018-12-31T19:21:01.034Z,32.60
2018-12-31T19:23:33.288Z,36.77
2018-12-31T19:26:05.236Z,33.47
2018-12-31T19:28:37.368Z,31.77
2018-12-31T19:31:11.018Z,34.27
2018-12-31T19:33:50.131Z,30.13
2018-12-31T19:36:26.415Z,34.37
2018-12-31T19:39:00.897Z,34.60
2018-12-31T19:41:32.358Z,36.93
2018-12-31T19:44:03.657Z,34.13
2018-12-31T19:46:35.205Z,35.47
2018-12-31T19:49:06.531Z,31.10
2018-12-31T19:51:38.145Z,35.27
2018-12-31T19:54:09.421Z,38.50
2018-12-31T19:56:40.837Z,35.93
2018-12-31T19:59:12.111Z,36.83
2018-12-31T20:01:43.502Z,28.97
2018-12-31T20:04:14.762Z,36.50
2018-12-31T20:06:46.426Z,34.07
2018-12-31T20:09:19.270Z,34.10
2018-12-31T20:11:50.820Z,38.47
2018-12-31T20:14:22.086Z,42.97
2018-12-31T20:16:56.466Z,39.37
2018-12-31T20:19:31.017Z,37.60
2018-12-31T20:22:02.257Z,38.40
2018-12-31T20:24:33.681Z,40.60
2018-12-31T20:27:05.302Z,41.97
2018-12-31T20:29:36.993Z,37.47
2018-12-31T20:32:08.474Z,37.50
2018-12-31T20:34:41.196Z,40.77
2018-12-31T20:37:12.426Z,38.83
2018-12-31T20:39:43.724Z,37.17
2018-12-31T20:42:16.566Z,38.83
2018-12-31T20:44:49.821Z,42.07
2018-12-31T20:47:20.770Z,42.07
2018-12-31T20:49:53.245Z,50.27
2018-12-31T20:52:24.866Z,42.33
2018-12-31T20:54:56.054Z,43.20
2018-12-31T20:57:27.616Z,39.30
2018-12-31T20:59:59.081Z,42.47
2018-12-31T21:02:32.010Z,42.40
2018-12-31T21:05:03.448Z,42.87
2018-12-31T21:07:35.106Z,43.37
2018-12-31T21:10:09.252Z,44.37
2018-12-31T21:12:40.714Z,44.37
2018-12-31T21:15:12.269Z,49.17
2018-12-31T21:17:44.635Z,46.93
2018-12-31T21:20:15.961Z,46.67
2018-12-31T21:22:47.529Z,46.53
2018-12-31T21:25:19.110Z,53.83
2018-12-31T21:27:52.118Z,50.00
2018-12-31T21:30:23.383Z,43.83
2018-12-31T21:32:54.785Z,46.83
2018-12-31T21:35:26.509Z,41.23
2018-12-31T21:37:57.933Z,43.57
2018-12-31T21:40:29.284Z,44.80
2018-12-31T21:43:00.669Z,43.33
2018-12-31T21:45:32.092Z,44.97
2018-12-31T21:48:03.423Z,39.97
2018-12-31T21:50:34.777Z,45.60
2018-12-31T21:53:09.200Z,47.87
2018-12-31T21:55:40.906Z,54.23
2018-12-31T21:58:12.677Z,50.20
2018-12-31T22:00:43.915Z,40.97
2018-12-31T22:03:15.323Z,46.33
2018-12-31T22:05:46.714Z,47.47
2018-12-31T22:08:18.045Z,44.10
2018-12-31T22:10:52.001Z,51.57
2018-12-31T22:13:23.400Z,49.33
2018-12-31T22:15:54.782Z,46.30
2018-12-31T22:18:26.157Z,48.77
2018-12-31T22:20:57.442Z,53.73
2018-12-31T22:23:29.062Z,48.73
2018-12-31T22:26:00.452Z,56.87
2018-12-31T22:28:31.912Z,51.43
2018-12-31T22:31:05.122Z,49.47
2018-12-31T22:33:36.511Z,49.47
2018-12-31T22:36:07.836Z,51.37
2018-12-31T22:38:39.258Z,53.33
2018-12-31T22:41:10.807Z,54.17
2018-12-31T22:43:42.166Z,57.20
2018-12-31T22:46:20.916Z,57.87
2018-12-31T22:48:52.277Z,47.90
2018-12-31T22:51:23.752Z,51.70
2018-12-31T22:53:55.037Z,58.03
2018-12-31T22:56:26.297Z,51.47
2018-12-31T22:58:57.589Z,54.10
2018-12-31T23:01:28.862Z,62.90
2018-12-31T23:04:00.442Z,84.53
2018-12-31T23:06:31.906Z,158.60
2018-12-31T23:09:03.368Z,185.53
2018-12-31T23:11:34.738Z,195.63
2018-12-31T23:14:07.000Z,200.60
2018-12-31T23:16:38.613Z,209.00
2018-12-31T23:19:10.134Z,210.43
2018-12-31T23:21:41.462Z,183.33
2018-12-31T23:24:12.769Z,161.37
2018-12-31T23:26:44.053Z,167.93
2018-12-31T23:29:15.518Z,159.63
2018-12-31T23:31:46.763Z,115.03
2018-12-31T23:34:18.110Z,128.40
2018-12-31T23:36:49.528Z,114.63
2018-12-31T23:39:20.905Z,107.83
2018-12-31T23:41:52.312Z,100.73
2018-12-31T23:44:23.592Z,85.77
2018-12-31T23:46:54.922Z,82.60
2018-12-31T23:49:26.361Z,79.57
2018-12-31T23:51:57.683Z,77.90
2018-12-31T23:54:30.504Z,76.27
2018-12-31T23:57:02.113Z,67.70
2018-12-31T23:59:33.583Z,74.80
